Data for 01/06/2008

Time Sea-Level Adjusted Pressure Absolute Pressure Temperature Relative Humidity Dew Point   
(mb) (inHg) (mb) (inHg) (C) (F) (%) (C) (F)
00:05 1001 29.56 831 24.54 -4 24.9 48 -13.4 7.9
00:10 1001 29.56 831 24.54 -4.1 24.6 48 -13.4 7.8
00:15 1001 29.56 831 24.54 -4.1 24.5 48 -13.6 7.5
00:20 1001 29.56 830 24.51 -4.1 24.7 48 -13.4 7.8
00:25 1001 29.56 830 24.51 -4.2 24.5 48 -13.5 7.6
00:30 1001 29.56 831 24.54 -4.2 24.4 47 -14 6.8
00:35 1001 29.56 831 24.54 -4.1 24.6 46 -14.1 6.7
00:40 1001 29.56 831 24.54 -3.8 25.1 45 -14.3 6.3
00:45 1001 29.56 831 24.54 -3.7 25.4 45 -14.1 6.7
00:50 1001 29.56 831 24.54 -3.8 25.1 49 -13.1 8.5
00:55 1001 29.56 831 24.54 -4 24.7 45 -14.4 6.2
01:00 1001 29.56 831 24.54 -3.7 25.3 47 -13.6 7.6
01:05 1001 29.56 830 24.51 -3.7 25.3 46 -13.8 7.2
01:10 1001 29.56 830 24.51 -3.8 25.2 46 -13.7 7.3
01:15 1001 29.56 831 24.54 -4 24.9 46 -13.9 6.9
01:20 1001 29.56 831 24.54 -4 24.8 45 -14.3 6.3
01:25 1001 29.56 830 24.51 -3.3 26 42 -14.6 5.7
01:30 1001 29.56 830 24.51 -2.8 26.9 42 -14.2 6.5
01:35 1001 29.56 831 24.54 -2.7 27.1 42 -13.8 7.1
01:40 1001 29.56 830 24.51 -2.7 27.2 41 -14.3 6.2
01:45 1001 29.56 830 24.51 -2.9 26.7 42 -14.2 6.4
01:50 1001 29.56 830 24.51 -2.9 26.7 41 -14.3 6.2
01:55 1001 29.56 830 24.51 -2.7 27.2 37 -15.4 4.4
02:00 1001 29.56 830 24.51 -2.1 28.2 40 -13.9 7
02:05 1001 29.56 830 24.51 -2.1 28.3 40 -13.9 7
02:10 1001 29.56 830 24.51 -1.8 28.7 40 -13.7 7.3
02:15 1001 29.56 830 24.51 -1.4 29.5 36 -14.7 5.6
02:20 1001 29.56 830 24.51 -1.1 30 40 -13.2 8.2
02:25 1001 29.56 830 24.51 -1.1 30 36 -14.4 6
02:30 1001 29.56 830 24.51 -1.1 30 41 -12.6 9.3
02:35 1001 29.56 830 24.51 -1.5 29.4 42 -12.9 8.8
02:40 1001 29.56 830 24.51 -1.5 29.3 43 -12.5 9.4
02:45 1001 29.56 830 24.51 -1.5 29.3 44 -12.2 10.1
02:50 1001 29.56 830 24.51 -1.6 29.2 43 -12.7 9.1
02:55 1001 29.56 830 24.51 -1.6 29.2 44 -12.2 10.1
03:00 1001 29.56 830 24.51 -1.8 28.8 47 -11.7 10.9
03:05 1001 29.56 830 24.51 -1.9 28.6 46 -12.1 10.2
03:10 1001 29.56 830 24.51 -1.7 28.9 46 -12 10.4
03:15 1001 29.56 830 24.51 -1.6 29 45 -12.1 10.2
03:20 1001 29.56 830 24.51 -1.6 29.1 45 -12 10.4
03:25 1001 29.56 830 24.51 -1.6 29.2 43 -12.5 9.5
03:30 1001 29.56 830 24.51 -1.9 28.6 47 -11.9 10.6
03:35 1001 29.56 830 24.51 -3 26.6 50 -12 10.4
03:40 1001 29.56 830 24.51 -3.6 25.5 52 -12.1 10.1
03:45 1001 29.56 830 24.51 -3.8 25.1 53 -12 10.4
03:50 1000 29.53 830 24.51 -3.8 25.1 53 -12 10.4
03:55 1000 29.53 830 24.51 -3.8 25.2 53 -12.1 10.3
04:00 1000 29.53 830 24.51 -3.7 25.4 52 -12.1 10.3
04:05 1000 29.53 830 24.51 -3.4 26 51 -12.2 10.1
04:10 1000 29.53 830 24.51 -3 26.7 49 -12.3 9.9
04:15 1000 29.53 830 24.51 -2.8 26.9 49 -12.1 10.2
04:20 1000 29.53 830 24.51 -2.9 26.7 49 -12.1 10.2
04:25 1000 29.53 830 24.51 -3.1 26.4 50 -12.1 10.3
04:30 1000 29.53 830 24.51 -3.2 26.2 50 -12.2 10.1
04:35 1000 29.53 830 24.51 -3.3 26 51 -12.1 10.2
04:40 1000 29.53 830 24.51 -3.3 26 51 -12.1 10.1
04:45 1000 29.53 830 24.51 -3.4 25.9 51 -12.2 10.1
04:50 1000 29.53 830 24.51 -3.4 25.8 51 -12.2 10
04:55 1000 29.53 830 24.51 -3.6 25.6 52 -12 10.5
05:00 1000 29.53 830 24.51 -3.7 25.4 52 -12.2 10
05:05 1000 29.53 830 24.51 -3.2 26.2 51 -12.1 10.3
05:10 1000 29.53 830 24.51 -3.1 26.5 51 -12 10.4
05:15 1000 29.53 830 24.51 -3.1 26.4 52 -11.7 10.9
05:20 1000 29.53 830 24.51 -3.2 26.2 51 -11.9 10.5
05:25 1000 29.53 830 24.51 -3 26.6 49 -12.3 9.8
05:30 1000 29.53 830 24.51 -2.8 27 51 -11.5 11.3
05:35 1001 29.56 830 24.51 -3.5 25.6 55 -11.4 11.5
05:40 1001 29.56 830 24.51 -4.2 24.4 57 -11.6 11.1
05:45 1001 29.56 830 24.51 -4.5 23.8 56 -12 10.4
05:50 1001 29.56 830 24.51 -4.4 24 54 -12.4 9.7
05:55 1001 29.56 830 24.51 -4.3 24.2 53 -12.6 9.4
06:00 1001 29.56 830 24.51 -4.4 24.2 55 -12.1 10.3
06:05 1001 29.56 830 24.51 -4.8 23.4 56 -12.4 9.8
06:10 1001 29.56 830 24.51 -4.9 23.1 56 -12.5 9.5
06:15 1001 29.56 830 24.51 -5 23.1 55 -12.7 9.1
06:20 1001 29.56 830 24.51 -4.9 23.2 55 -12.6 9.3
06:25 1001 29.56 830 24.51 -4.8 23.3 55 -12.6 9.3
06:30 1001 29.56 830 24.51 -4.9 23.1 56 -12.5 9.5
06:35 1001 29.56 830 24.51 -5.1 22.8 56 -12.5 9.5
06:40 1001 29.56 830 24.51 -5.2 22.6 56 -12.6 9.3
06:45 1001 29.56 830 24.51 -5.2 22.7 55 -12.8 8.9
06:50 1001 29.56 830 24.51 -5 23 55 -12.7 9.2
06:55 1001 29.56 830 24.51 -4.9 23.1 55 -12.7 9.1
07:00 1001 29.56 830 24.51 -4.8 23.4 55 -12.6 9.3
07:05 1001 29.56 830 24.51 -4.7 23.5 53 -12.8 8.9
07:10 1001 29.56 830 24.51 -4.5 23.9 53 -12.8 9
07:15 1001 29.56 830 24.51 -4.3 24.3 54 -12.3 9.9
07:20 1001 29.56 830 24.51 -4.4 24.1 52 -12.7 9.1
07:25 1001 29.56 830 24.51 -4.2 24.5 51 -13 8.6
07:30 1001 29.56 830 24.51 -3.9 24.9 51 -12.6 9.4
07:35 1001 29.56 830 24.51 -4.1 24.6 52 -12.5 9.4
07:40 1001 29.56 830 24.51 -4.3 24.3 52 -12.7 9.2
07:45 1000 29.53 830 24.51 -4.4 24.2 52 -12.7 9.1
07:50 1000 29.53 830 24.51 -4.4 24.1 53 -12.6 9.4
07:55 1000 29.53 830 24.51 -4.5 23.9 53 -12.7 9.1
08:00 1000 29.53 830 24.51 -4.4 24 52 -12.8 9
08:05 1000 29.53 830 24.51 -4.3 24.2 52 -12.9 8.8
08:10 1001 29.56 830 24.51 -4.3 24.2 55 -12.2 10.1
08:15 1001 29.56 830 24.51 -4.6 23.8 55 -12.2 10
08:20 1001 29.56 830 24.51 -4.8 23.3 55 -12.5 9.6
08:25 1001 29.56 830 24.51 -4.9 23.3 54 -12.7 9.1
08:30 1001 29.56 830 24.51 -4.6 23.8 53 -12.9 8.8
08:35 1001 29.56 830 24.51 -4.2 24.4 52 -12.7 9.1
08:40 1001 29.56 830 24.51 -4 24.8 51 -12.6 9.3
08:45 1001 29.56 830 24.51 -3.8 25.1 51 -12.7 9.2
08:50 1001 29.56 830 24.51 -3.7 25.3 50 -12.7 9.1
08:55 1001 29.56 830 24.51 -3.7 25.4 49 -12.9 8.9
09:00 1001 29.56 830 24.51 -3.4 25.8 48 -12.9 8.9
09:05 1001 29.56 830 24.51 -3.2 26.2 49 -12.5 9.4
09:10 1001 29.56 830 24.51 -3.2 26.2 48 -12.8 8.9
09:15 1001 29.56 830 24.51 -3.1 26.4 48 -12.7 9.1
09:20 1001 29.56 830 24.51 -3 26.5 49 -12.4 9.7
09:25 1001 29.56 830 24.51 -2.7 27.1 45 -13 8.5
09:30 1001 29.56 830 24.51 -1.8 28.7 44 -12.5 9.5
09:35 1001 29.56 830 24.51 -1.6 29.1 45 -12.2 10.1
09:40 1001 29.56 831 24.54 -1.4 29.4 45 -11.9 10.6
09:45 1001 29.56 831 24.54 -1.3 29.7 45 -11.7 11
09:50 1001 29.56 831 24.54 -0.8 30.6 43 -11.9 10.5
09:55 1001 29.56 831 24.54 0.1 32.2 39 -12.2 10.1
10:00 1001 29.56 831 24.54 1.1 34 38 -11.8 10.8
10:05 1002 29.59 831 24.54 1.1 34.1 37 -11.9 10.5
10:10 1002 29.59 831 24.54 1.4 34.5 37 -11.8 10.8
10:15 1002 29.59 831 24.54 1.5 34.8 38 -11.3 11.6
10:20 1002 29.59 831 24.54 1 33.8 41 -10.8 12.5
10:25 1002 29.59 831 24.54 1 33.7 38 -12 10.5
10:30 1002 29.59 831 24.54 0.9 33.7 38 -11.9 10.7
10:35 1002 29.59 831 24.54 1 33.8 39 -11.4 11.6
10:40 1002 29.59 831 24.54 1.2 34.1 38 -11.6 11.2
10:45 1002 29.59 831 24.54 1.2 34.1 39 -11.4 11.4
10:50 1002 29.59 831 24.54 1.3 34.3 37 -11.8 10.7
10:55 1002 29.59 831 24.54 1.1 34 39 -11.4 11.5
11:00 1002 29.59 831 24.54 1.2 34.2 40 -11 12.2
11:05 1002 29.59 831 24.54 1.1 33.9 40 -11.1 12
11:10 1002 29.59 831 24.54 0.8 33.4 41 -11 12.2
11:15 1001 29.56 831 24.54 0.6 33.1 42 -10.7 12.7
11:20 1001 29.56 831 24.54 1 33.7 39 -11.5 11.2
11:25 1001 29.56 830 24.51 1 33.8 40 -11.1 12
11:30 1001 29.56 830 24.51 0.7 33.2 42 -10.9 12.4
11:35 1001 29.56 830 24.51 0.5 33 40 -11.7 11
11:40 1001 29.56 830 24.51 0.6 33.1 40 -11.4 11.5
11:45 1001 29.56 830 24.51 0.7 33.3 40 -11.3 11.6
11:50 1001 29.56 830 24.51 0.8 33.5 40 -11.3 11.6
11:55 1001 29.56 830 24.51 0.9 33.7 39 -11.6 11.2
12:00 1001 29.56 830 24.51 1.4 34.6 38 -11.3 11.7
12:05 1001 29.56 830 24.51 1.7 35 38 -11.2 11.8
12:10 1001 29.56 830 24.51 1.8 35.2 39 -10.9 12.4
12:15 1001 29.56 830 24.51 2.3 36.2 35 -11.6 11.1
12:20 1001 29.56 830 24.51 2.6 36.7 38 -10.3 13.4
12:25 1001 29.56 830 24.51 2.5 36.5 38 -10.5 13.1
12:30 1001 29.56 830 24.51 1.8 35.3 40 -10.5 13
12:35 1001 29.56 830 24.51 2 35.6 37 -11.1 12
12:40 1001 29.56 830 24.51 2.2 35.9 36 -11.6 11.1
12:45 1001 29.56 830 24.51 1.6 34.9 41 -10.4 13.2
12:50 1001 29.56 830 24.51 1.1 34.1 42 -10.4 13.4
12:55 1001 29.56 830 24.51 1.3 34.3 39 -11.1 12.1
13:00 1001 29.56 830 24.51 1.1 34 41 -10.8 12.6
13:05 1001 29.56 830 24.51 1.1 34 38 -11.6 11.1
13:10 1001 29.56 830 24.51 0.8 33.5 41 -11 12.1
13:15 1001 29.56 830 24.51 0.6 33.1 42 -10.8 12.6
13:20 1001 29.56 830 24.51 0.4 32.8 43 -10.8 12.6
13:25 1001 29.56 830 24.51 0.4 32.7 42 -11 12.1
13:30 1001 29.56 830 24.51 0.4 32.7 41 -11.2 11.8
13:35 1001 29.56 830 24.51 0.3 32.5 42 -11.1 12
13:40 1001 29.56 830 24.51 0.2 32.3 44 -10.7 12.7
13:45 1001 29.56 830 24.51 0.2 32.3 44 -10.8 12.5
13:50 1001 29.56 830 24.51 0.2 32.4 43 -11 12.1
13:55 1001 29.56 830 24.51 0.3 32.6 43 -10.9 12.5
14:00 1001 29.56 830 24.51 0.7 33.2 42 -10.9 12.3
14:05 1001 29.56 830 24.51 0.6 33 43 -10.5 13
14:10 1001 29.56 830 24.51 0.6 33.1 43 -10.5 13
14:15 1001 29.56 830 24.51 0.6 33 43 -10.5 13.1
14:20 1001 29.56 830 24.51 0.5 32.9 44 -10.3 13.4
14:25 1001 29.56 830 24.51 0.5 32.9 44 -10.5 13.1
14:30 1001 29.56 830 24.51 0.8 33.4 45 -9.9 14.1
14:35 1001 29.56 830 24.51 0.9 33.7 43 -10.3 13.5
14:40 1001 29.56 830 24.51 0.8 33.4 44 -10.2 13.6
14:45 1001 29.56 830 24.51 0.8 33.4 43 -10.3 13.4
14:50 1001 29.56 830 24.51 0.7 33.2 45 -10.1 13.9
14:55 1001 29.56 830 24.51 0.5 33 46 -9.9 14.1
15:00 1001 29.56 830 24.51 0.5 33 45 -10.1 13.8
15:05 1001 29.56 830 24.51 0.7 33.2 44 -10.3 13.5
15:10 1001 29.56 830 24.51 0.7 33.2 46 -9.8 14.4
15:15 1001 29.56 830 24.51 0.6 33 44 -10.3 13.5
15:20 1001 29.56 830 24.51 0.6 33.1 45 -10.1 13.8
15:25 1001 29.56 830 24.51 0.7 33.3 45 -10 13.9
15:30 1001 29.56 830 24.51 0.8 33.5 44 -10.2 13.6
15:35 1001 29.56 831 24.54 0.9 33.6 44 -10.1 13.8
15:40 1001 29.56 831 24.54 0.8 33.4 46 -9.6 14.7
15:45 1001 29.56 831 24.54 0.8 33.4 46 -9.6 14.8
15:50 1001 29.56 831 24.54 0.8 33.5 47 -9.2 15.5
15:55 1002 29.59 831 24.54 0.8 33.5 48 -8.9 16
16:00 1002 29.59 831 24.54 0.8 33.4 49 -8.7 16.4
16:05 1002 29.59 831 24.54 0.8 33.4 48 -9 15.9
16:10 1002 29.59 831 24.54 0.8 33.4 48 -9 15.8
16:15 1002 29.59 831 24.54 0.6 33.1 49 -9 15.8
16:20 1002 29.59 831 24.54 0.5 32.9 48 -9.2 15.5
16:25 1002 29.59 831 24.54 0.4 32.8 50 -8.9 15.9
16:30 1002 29.59 831 24.54 0.4 32.6 52 -8.5 16.7
16:35 1002 29.59 831 24.54 0.3 32.5 52 -8.4 16.9
16:40 1002 29.59 831 24.54 0.2 32.3 53 -8.3 17
16:45 1002 29.59 831 24.54 0.1 32.2 53 -8.2 17.2
16:50 1002 29.59 831 24.54 -0 31.9 54 -8.2 17.3
16:55 1002 29.59 831 24.54 -0.1 31.7 56 -7.9 17.7
17:00 1002 29.59 832 24.57 -0.3 31.5 56 -8 17.6
17:05 1002 29.59 832 24.57 -0.4 31.3 57 -8 17.6
17:10 1003 29.62 832 24.57 -0.5 31.2 58 -7.7 18.1
17:15 1003 29.62 832 24.57 -0.5 31 58 -7.7 18.1
17:20 1003 29.62 832 24.57 -0.5 31 59 -7.6 18.4
17:25 1003 29.62 832 24.57 -0.5 31.1 58 -7.8 17.9
17:30 1003 29.62 832 24.57 -0.6 31 62 -7.1 19.3
17:35 1003 29.62 832 24.57 -0.8 30.6 64 -6.9 19.7
17:40 1003 29.62 832 24.57 -0.9 30.3 64 -6.9 19.6
17:45 1003 29.62 832 24.57 -1 30.3 64 -7 19.4
17:50 1003 29.62 832 24.57 -0.9 30.4 62 -7.3 18.9
17:55 1003 29.62 832 24.57 -0.9 30.4 62 -7.2 19
18:00 1003 29.62 832 24.57 -0.9 30.4 62 -7.2 19
18:05 1003 29.62 832 24.57 -0.9 30.3 63 -7.1 19.2
18:10 1003 29.62 833 24.6 -1 30.2 64 -7 19.3
18:15 1003 29.62 833 24.6 -1.1 30 64 -7 19.4
18:20 1003 29.62 833 24.6 -1.1 30 64 -7.1 19.3
18:25 1004 29.65 833 24.6 -1.1 30 64 -7 19.3
18:30 1004 29.65 833 24.6 -1.1 29.9 64 -7 19.4
18:35 1004 29.65 833 24.6 -1.1 29.9 65 -7 19.4
18:40 1004 29.65 833 24.6 -1.2 29.9 66 -6.8 19.7
18:45 1004 29.65 833 24.6 -1.3 29.7 66 -6.9 19.6
18:50 1004 29.65 833 24.6 -1.3 29.7 68 -6.4 20.4
18:55 1004 29.65 833 24.6 -1.6 29.2 70 -6.3 20.7
19:00 1004 29.65 833 24.6 -1.6 29.1 70 -6.4 20.5
19:05 1004 29.65 833 24.6 -1.6 29.1 70 -6.4 20.5
19:10 1004 29.65 834 24.63 -1.7 29 69 -6.6 20.2
19:15 1004 29.65 834 24.63 -1.7 29 68 -6.8 19.8
19:20 1004 29.65 834 24.63 -1.7 29 67 -6.9 19.5
19:25 1004 29.65 834 24.63 -1.7 28.9 66 -7.2 19.1
19:30 1004 29.65 834 24.63 -1.7 28.9 67 -7.2 19.1
19:35 1004 29.65 834 24.63 -1.8 28.8 67 -7.1 19.1
19:40 1004 29.65 834 24.63 -1.8 28.7 67 -7.2 19
19:45 1005 29.68 834 24.63 -1.9 28.6 67 -7.3 18.9
19:50 1005 29.68 834 24.63 -2 28.5 67 -7.2 19
19:55 1005 29.68 834 24.63 -2 28.4 67 -7.3 18.9
20:00 1005 29.68 834 24.63 -2 28.5 67 -7.3 18.8
20:05 1005 29.68 834 24.63 -2 28.3 67 -7.4 18.6
20:10 1005 29.68 834 24.63 -2.1 28.2 68 -7.3 18.8
20:15 1005 29.68 834 24.63 -2.2 28.1 68 -7.4 18.7
20:20 1005 29.68 834 24.63 -2.3 27.9 66 -7.8 18
20:25 1005 29.68 834 24.63 -2.3 27.8 66 -7.8 18
20:30 1005 29.68 834 24.63 -2.4 27.6 66 -7.9 17.8
20:35 1005 29.68 834 24.63 -2.4 27.6 67 -7.7 18.2
20:40 1005 29.68 834 24.63 -2.8 26.9 71 -7.3 18.8
20:45 1005 29.68 834 24.63 -2.9 26.7 65 -8.6 16.5
20:50 1005 29.68 834 24.63 -2.5 27.4 64 -8.4 16.9
20:55 1005 29.68 834 24.63 -2.3 27.8 64 -8.2 17.2
21:00 1005 29.68 834 24.63 -2.3 27.9 64 -8.3 17.1
21:05 1005 29.68 834 24.63 -2.3 27.9 63 -8.4 16.9
21:10 1005 29.68 834 24.63 -2.3 27.9 63 -8.4 16.9
21:15 1005 29.68 834 24.63 -2.3 27.8 64 -8.3 17.1
21:20 1005 29.68 834 24.63 -2.4 27.7 64 -8.3 17
21:25 1005 29.68 834 24.63 -2.5 27.6 63 -8.6 16.6
21:30 1005 29.68 834 24.63 -2.5 27.4 63 -8.7 16.4
21:35 1005 29.68 834 24.63 -2.6 27.3 63 -8.8 16.2
21:40 1005 29.68 835 24.66 -2.6 27.2 62 -8.9 15.9
21:45 1005 29.68 835 24.66 -2.6 27.3 62 -9 15.8
21:50 1005 29.68 835 24.66 -2.6 27.3 60 -9.3 15.2
21:55 1006 29.71 835 24.66 -2.7 27.2 61 -9.2 15.4
22:00 1006 29.71 835 24.66 -3.1 26.4 66 -8.5 16.7
22:05 1006 29.71 835 24.66 -3.7 25.4 67 -8.9 16
22:10 1006 29.71 835 24.66 -3.7 25.3 67 -9 15.8
22:15 1006 29.71 835 24.66 -3.8 25.2 66 -9.2 15.5
22:20 1006 29.71 835 24.66 -3.8 25.1 67 -9.1 15.6
22:25 1006 29.71 835 24.66 -3.8 25.2 66 -9.2 15.5
22:30 1006 29.71 835 24.66 -3.9 24.9 67 -9.2 15.4
22:35 1006 29.71 835 24.66 -4 24.8 67 -9.3 15.2
22:40 1006 29.71 835 24.66 -4 24.8 64 -9.7 14.5
22:45 1006 29.71 835 24.66 -3.9 24.9 64 -9.8 14.4
22:50 1006 29.71 835 24.66 -3.9 25 63 -9.9 14.2
22:55 1006 29.71 835 24.66 -3.9 25 61 -10.4 13.3
23:00 1006 29.71 835 24.66 -3.8 25.1 60 -10.5 13.2
23:05 1006 29.71 835 24.66 -3.9 25.1 60 -10.5 13.1
23:10 1006 29.71 835 24.66 -3.9 25 60 -10.5 13
23:15 1006 29.71 835 24.66 -3.9 24.9 61 -10.5 13.2
23:20 1006 29.71 835 24.66 -4 24.7 61 -10.4 13.2
23:25 1006 29.71 836 24.69 -4.3 24.3 61 -10.6 12.9
23:30 1006 29.71 836 24.69 -4.5 23.9 62 -10.7 12.8
23:35 1006 29.71 836 24.69 -4.7 23.5 63 -10.8 12.5
23:40 1006 29.71 836 24.69 -4.9 23.2 63 -10.9 12.3
23:45 1006 29.71 836 24.69 -4.9 23.2 62 -11.2 11.9
23:50 1006 29.71 835 24.66 -4.8 23.3 62 -11.1 11.9
23:55 1006 29.71 836 24.69 -4.9 23.1 62 -11.2 11.8
24:00 1006 29.71 836 24.69 -5.4 22.3 63 -11.4 11.5